sensor_id;sensor_type;location;lat;lon;timestamp;P1;durP1;ratioP1;P2;durP2;ratioP2
5569;SDS011;2808;51.240;6.794;2022-10-31T00:01:20;21.27;;;8.03;;
5569;SDS011;2808;51.240;6.794;2022-10-31T00:03:48;17.83;;;8.30;;
5569;SDS011;2808;51.240;6.794;2022-10-31T00:06:16;29.83;;;9.93;;
5569;SDS011;2808;51.240;6.794;2022-10-31T00:08:45;25.67;;;8.73;;
5569;SDS011;2808;51.240;6.794;2022-10-31T00:11:13;31.90;;;9.70;;
5569;SDS011;2808;51.240;6.794;2022-10-31T00:13:41;23.30;;;9.27;;
5569;SDS011;2808;51.240;6.794;2022-10-31T00:16:13;26.07;;;8.97;;
5569;SDS011;2808;51.240;6.794;2022-10-31T00:18:47;26.67;;;8.93;;
5569;SDS011;2808;51.240;6.794;2022-10-31T00:21:15;26.57;;;9.20;;
5569;SDS011;2808;51.240;6.794;2022-10-31T00:23:43;26.07;;;8.20;;
5569;SDS011;2808;51.240;6.794;2022-10-31T00:26:12;22.83;;;8.77;;
5569;SDS011;2808;51.240;6.794;2022-10-31T00:28:39;20.93;;;8.83;;
5569;SDS011;2808;51.240;6.794;2022-10-31T00:31:07;15.90;;;8.17;;
5569;SDS011;2808;51.240;6.794;2022-10-31T00:33:36;23.80;;;8.20;;
5569;SDS011;2808;51.240;6.794;2022-10-31T00:36:05;18.17;;;7.83;;
5569;SDS011;2808;51.240;6.794;2022-10-31T00:38:33;31.13;;;8.83;;
5569;SDS011;2808;51.240;6.794;2022-10-31T00:41:05;17.13;;;7.63;;
5569;SDS011;2808;51.240;6.794;2022-10-31T00:43:32;19.27;;;8.20;;
5569;SDS011;2808;51.240;6.794;2022-10-31T00:46:00;22.90;;;7.37;;
5569;SDS011;2808;51.240;6.794;2022-10-31T00:48:27;20.20;;;7.20;;
5569;SDS011;2808;51.240;6.794;2022-10-31T00:50:55;20.57;;;8.00;;
5569;SDS011;2808;51.240;6.794;2022-10-31T00:53:23;17.13;;;7.07;;
5569;SDS011;2808;51.240;6.794;2022-10-31T00:55:50;19.37;;;7.53;;
5569;SDS011;2808;51.240;6.794;2022-10-31T00:58:19;16.63;;;8.17;;
5569;SDS011;2808;51.240;6.794;2022-10-31T01:00:47;18.53;;;7.60;;
5569;SDS011;2808;51.240;6.794;2022-10-31T01:03:20;19.27;;;7.20;;
5569;SDS011;2808;51.240;6.794;2022-10-31T01:05:55;22.17;;;7.33;;
5569;SDS011;2808;51.240;6.794;2022-10-31T01:08:26;20.50;;;7.60;;
5569;SDS011;2808;51.240;6.794;2022-10-31T01:11:01;16.00;;;7.27;;
5569;SDS011;2808;51.240;6.794;2022-10-31T01:13:32;20.60;;;6.90;;
5569;SDS011;2808;51.240;6.794;2022-10-31T01:15:59;30.33;;;7.67;;
5569;SDS011;2808;51.240;6.794;2022-10-31T01:18:28;20.17;;;7.50;;
5569;SDS011;2808;51.240;6.794;2022-10-31T01:21:00;19.93;;;7.10;;
5569;SDS011;2808;51.240;6.794;2022-10-31T01:23:29;24.43;;;6.60;;
5569;SDS011;2808;51.240;6.794;2022-10-31T01:26:04;23.30;;;6.73;;
5569;SDS011;2808;51.240;6.794;2022-10-31T01:28:35;13.33;;;6.80;;
5569;SDS011;2808;51.240;6.794;2022-10-31T01:31:05;20.80;;;6.90;;
5569;SDS011;2808;51.240;6.794;2022-10-31T01:33:34;27.50;;;7.70;;
5569;SDS011;2808;51.240;6.794;2022-10-31T01:36:10;18.67;;;6.90;;
5569;SDS011;2808;51.240;6.794;2022-10-31T01:38:39;15.60;;;6.57;;
5569;SDS011;2808;51.240;6.794;2022-10-31T01:41:09;28.67;;;6.60;;
5569;SDS011;2808;51.240;6.794;2022-10-31T01:43:43;22.50;;;7.40;;
5569;SDS011;2808;51.240;6.794;2022-10-31T01:46:15;17.77;;;6.73;;
5569;SDS011;2808;51.240;6.794;2022-10-31T01:48:47;20.07;;;6.87;;
5569;SDS011;2808;51.240;6.794;2022-10-31T01:51:15;26.10;;;7.30;;
5569;SDS011;2808;51.240;6.794;2022-10-31T01:53:44;20.53;;;6.80;;
5569;SDS011;2808;51.240;6.794;2022-10-31T01:56:13;21.20;;;5.80;;
5569;SDS011;2808;51.240;6.794;2022-10-31T01:58:45;21.63;;;6.80;;
5569;SDS011;2808;51.240;6.794;2022-10-31T02:01:13;17.43;;;5.90;;
5569;SDS011;2808;51.240;6.794;2022-10-31T02:03:42;14.93;;;6.70;;
5569;SDS011;2808;51.240;6.794;2022-10-31T02:06:13;15.20;;;6.80;;
5569;SDS011;2808;51.240;6.794;2022-10-31T02:08:51;18.20;;;7.30;;
5569;SDS011;2808;51.240;6.794;2022-10-31T02:11:20;16.67;;;6.00;;
5569;SDS011;2808;51.240;6.794;2022-10-31T02:13:50;20.47;;;7.23;;
5569;SDS011;2808;51.240;6.794;2022-10-31T02:16:17;16.90;;;7.17;;
5569;SDS011;2808;51.240;6.794;2022-10-31T02:18:44;27.80;;;7.90;;
5569;SDS011;2808;51.240;6.794;2022-10-31T02:21:14;12.03;;;6.60;;
5569;SDS011;2808;51.240;6.794;2022-10-31T02:23:57;27.67;;;7.30;;
5569;SDS011;2808;51.240;6.794;2022-10-31T02:29:49;20.67;;;8.10;;
5569;SDS011;2808;51.240;6.794;2022-10-31T02:32:28;15.93;;;6.90;;
5569;SDS011;2808;51.240;6.794;2022-10-31T02:35:07;18.53;;;7.23;;
5569;SDS011;2808;51.240;6.794;2022-10-31T02:37:41;19.97;;;7.30;;
5569;SDS011;2808;51.240;6.794;2022-10-31T02:40:15;15.60;;;6.43;;
5569;SDS011;2808;51.240;6.794;2022-10-31T02:42:49;17.90;;;7.20;;
5569;SDS011;2808;51.240;6.794;2022-10-31T02:45:25;22.00;;;7.07;;
5569;SDS011;2808;51.240;6.794;2022-10-31T02:48:00;16.30;;;7.70;;
5569;SDS011;2808;51.240;6.794;2022-10-31T02:50:34;26.30;;;7.50;;
5569;SDS011;2808;51.240;6.794;2022-10-31T02:53:06;19.67;;;7.77;;
5569;SDS011;2808;51.240;6.794;2022-10-31T02:55:42;26.43;;;7.80;;
5569;SDS011;2808;51.240;6.794;2022-10-31T02:58:19;17.87;;;7.00;;
5569;SDS011;2808;51.240;6.794;2022-10-31T03:00:54;21.50;;;7.43;;
5569;SDS011;2808;51.240;6.794;2022-10-31T03:03:36;18.40;;;7.50;;
5569;SDS011;2808;51.240;6.794;2022-10-31T03:06:14;17.03;;;7.20;;
5569;SDS011;2808;51.240;6.794;2022-10-31T03:08:50;20.60;;;8.40;;
5569;SDS011;2808;51.240;6.794;2022-10-31T03:11:32;25.93;;;7.13;;
5569;SDS011;2808;51.240;6.794;2022-10-31T03:14:12;17.30;;;7.60;;
5569;SDS011;2808;51.240;6.794;2022-10-31T03:16:45;17.47;;;7.60;;
5569;SDS011;2808;51.240;6.794;2022-10-31T03:19:15;14.43;;;7.10;;
5569;SDS011;2808;51.240;6.794;2022-10-31T03:21:47;19.27;;;8.13;;
5569;SDS011;2808;51.240;6.794;2022-10-31T03:24:19;18.00;;;7.00;;
5569;SDS011;2808;51.240;6.794;2022-10-31T03:26:51;18.57;;;6.90;;
5569;SDS011;2808;51.240;6.794;2022-10-31T03:29:21;20.23;;;7.27;;
5569;SDS011;2808;51.240;6.794;2022-10-31T03:31:53;20.37;;;7.10;;
5569;SDS011;2808;51.240;6.794;2022-10-31T03:34:24;13.87;;;6.70;;
5569;SDS011;2808;51.240;6.794;2022-10-31T03:36:53;24.80;;;6.80;;
5569;SDS011;2808;51.240;6.794;2022-10-31T03:39:23;17.20;;;7.57;;
5569;SDS011;2808;51.240;6.794;2022-10-31T03:41:55;23.20;;;7.40;;
5569;SDS011;2808;51.240;6.794;2022-10-31T03:44:29;18.73;;;8.40;;
5569;SDS011;2808;51.240;6.794;2022-10-31T03:46:58;15.20;;;7.03;;
5569;SDS011;2808;51.240;6.794;2022-10-31T03:49:28;17.90;;;7.67;;
5569;SDS011;2808;51.240;6.794;2022-10-31T03:51:57;18.23;;;8.37;;
5569;SDS011;2808;51.240;6.794;2022-10-31T03:54:30;16.97;;;7.53;;
5569;SDS011;2808;51.240;6.794;2022-10-31T03:57:03;17.83;;;6.90;;
5569;SDS011;2808;51.240;6.794;2022-10-31T03:59:41;18.00;;;6.87;;
5569;SDS011;2808;51.240;6.794;2022-10-31T04:02:12;25.77;;;7.87;;
5569;SDS011;2808;51.240;6.794;2022-10-31T04:04:43;17.80;;;8.73;;
5569;SDS011;2808;51.240;6.794;2022-10-31T04:07:12;18.03;;;7.60;;
5569;SDS011;2808;51.240;6.794;2022-10-31T04:09:43;21.40;;;7.50;;
5569;SDS011;2808;51.240;6.794;2022-10-31T04:12:13;16.90;;;8.63;;
5569;SDS011;2808;51.240;6.794;2022-10-31T04:14:42;15.63;;;6.90;;
5569;SDS011;2808;51.240;6.794;2022-10-31T04:17:12;19.13;;;6.90;;
5569;SDS011;2808;51.240;6.794;2022-10-31T04:19:44;15.53;;;7.30;;
5569;SDS011;2808;51.240;6.794;2022-10-31T04:22:11;19.50;;;7.53;;
5569;SDS011;2808;51.240;6.794;2022-10-31T04:24:39;21.17;;;6.73;;
5569;SDS011;2808;51.240;6.794;2022-10-31T04:27:07;19.27;;;8.20;;
5569;SDS011;2808;51.240;6.794;2022-10-31T04:29:35;22.13;;;7.37;;
5569;SDS011;2808;51.240;6.794;2022-10-31T04:32:02;17.20;;;7.40;;
5569;SDS011;2808;51.240;6.794;2022-10-31T04:34:30;18.33;;;7.80;;
5569;SDS011;2808;51.240;6.794;2022-10-31T04:36:59;23.90;;;8.30;;
5569;SDS011;2808;51.240;6.794;2022-10-31T04:39:30;14.80;;;7.00;;
5569;SDS011;2808;51.240;6.794;2022-10-31T04:41:57;22.90;;;7.20;;
5569;SDS011;2808;51.240;6.794;2022-10-31T04:44:25;25.27;;;7.83;;
5569;SDS011;2808;51.240;6.794;2022-10-31T04:46:52;20.77;;;8.23;;
5569;SDS011;2808;51.240;6.794;2022-10-31T04:49:20;21.60;;;7.90;;
5569;SDS011;2808;51.240;6.794;2022-10-31T04:51:49;22.10;;;10.37;;
5569;SDS011;2808;51.240;6.794;2022-10-31T04:54:18;36.20;;;16.43;;
5569;SDS011;2808;51.240;6.794;2022-10-31T04:56:46;86.83;;;45.00;;
5569;SDS011;2808;51.240;6.794;2022-10-31T04:59:13;25.40;;;12.57;;
5569;SDS011;2808;51.240;6.794;2022-10-31T05:01:41;24.23;;;8.00;;
5569;SDS011;2808;51.240;6.794;2022-10-31T05:04:10;22.03;;;9.30;;
5569;SDS011;2808;51.240;6.794;2022-10-31T05:06:38;14.13;;;6.67;;
5569;SDS011;2808;51.240;6.794;2022-10-31T05:09:05;17.10;;;8.40;;
5569;SDS011;2808;51.240;6.794;2022-10-31T05:11:34;14.23;;;6.83;;
5569;SDS011;2808;51.240;6.794;2022-10-31T05:14:02;17.23;;;7.70;;
5569;SDS011;2808;51.240;6.794;2022-10-31T05:16:29;15.23;;;8.80;;
5569;SDS011;2808;51.240;6.794;2022-10-31T05:18:59;18.27;;;7.57;;
5569;SDS011;2808;51.240;6.794;2022-10-31T05:21:26;21.70;;;8.33;;
5569;SDS011;2808;51.240;6.794;2022-10-31T05:23:53;27.70;;;11.83;;
5569;SDS011;2808;51.240;6.794;2022-10-31T05:26:21;24.70;;;10.80;;
5569;SDS011;2808;51.240;6.794;2022-10-31T05:28:50;22.67;;;8.67;;
5569;SDS011;2808;51.240;6.794;2022-10-31T05:31:18;22.40;;;8.80;;
5569;SDS011;2808;51.240;6.794;2022-10-31T05:33:45;14.30;;;7.93;;
5569;SDS011;2808;51.240;6.794;2022-10-31T05:36:14;19.43;;;8.13;;
5569;SDS011;2808;51.240;6.794;2022-10-31T05:38:41;19.57;;;8.93;;
5569;SDS011;2808;51.240;6.794;2022-10-31T05:41:09;20.80;;;8.30;;
5569;SDS011;2808;51.240;6.794;2022-10-31T05:43:36;22.10;;;8.13;;
5569;SDS011;2808;51.240;6.794;2022-10-31T05:46:05;18.87;;;7.67;;
5569;SDS011;2808;51.240;6.794;2022-10-31T05:48:33;28.87;;;8.70;;
5569;SDS011;2808;51.240;6.794;2022-10-31T05:51:00;27.47;;;8.80;;
5569;SDS011;2808;51.240;6.794;2022-10-31T05:53:28;18.50;;;8.47;;
5569;SDS011;2808;51.240;6.794;2022-10-31T05:55:55;26.17;;;11.40;;
5569;SDS011;2808;51.240;6.794;2022-10-31T05:58:23;44.40;;;18.20;;
5569;SDS011;2808;51.240;6.794;2022-10-31T06:00:50;51.43;;;24.97;;
5569;SDS011;2808;51.240;6.794;2022-10-31T06:03:20;19.80;;;10.30;;
5569;SDS011;2808;51.240;6.794;2022-10-31T06:05:48;22.97;;;9.70;;
5569;SDS011;2808;51.240;6.794;2022-10-31T06:08:15;18.77;;;8.80;;
5569;SDS011;2808;51.240;6.794;2022-10-31T06:10:43;31.27;;;13.60;;
5569;SDS011;2808;51.240;6.794;2022-10-31T06:13:10;30.13;;;14.17;;
5569;SDS011;2808;51.240;6.794;2022-10-31T06:15:38;24.50;;;11.03;;
5569;SDS011;2808;51.240;6.794;2022-10-31T06:18:09;18.90;;;9.10;;
5569;SDS011;2808;51.240;6.794;2022-10-31T06:20:38;20.57;;;7.50;;
5569;SDS011;2808;51.240;6.794;2022-10-31T06:23:05;24.50;;;9.70;;
5569;SDS011;2808;51.240;6.794;2022-10-31T06:25:35;24.00;;;9.00;;
5569;SDS011;2808;51.240;6.794;2022-10-31T06:28:02;14.73;;;8.30;;
5569;SDS011;2808;51.240;6.794;2022-10-31T06:30:30;18.73;;;8.07;;
5569;SDS011;2808;51.240;6.794;2022-10-31T06:33:01;23.67;;;8.87;;
5569;SDS011;2808;51.240;6.794;2022-10-31T06:35:29;25.43;;;8.60;;
5569;SDS011;2808;51.240;6.794;2022-10-31T06:37:58;24.20;;;9.50;;
5569;SDS011;2808;51.240;6.794;2022-10-31T06:40:26;22.77;;;9.13;;
5569;SDS011;2808;51.240;6.794;2022-10-31T06:42:57;20.73;;;8.77;;
5569;SDS011;2808;51.240;6.794;2022-10-31T06:45:24;18.07;;;9.23;;
5569;SDS011;2808;51.240;6.794;2022-10-31T06:47:52;27.33;;;8.37;;
5569;SDS011;2808;51.240;6.794;2022-10-31T06:50:20;25.83;;;8.90;;
5569;SDS011;2808;51.240;6.794;2022-10-31T06:52:51;15.80;;;8.00;;
5569;SDS011;2808;51.240;6.794;2022-10-31T06:55:20;16.53;;;7.73;;
5569;SDS011;2808;51.240;6.794;2022-10-31T06:57:51;18.43;;;8.67;;
5569;SDS011;2808;51.240;6.794;2022-10-31T07:00:19;21.83;;;7.43;;
5569;SDS011;2808;51.240;6.794;2022-10-31T07:02:54;26.00;;;9.83;;
5569;SDS011;2808;51.240;6.794;2022-10-31T07:05:22;18.10;;;9.80;;
5569;SDS011;2808;51.240;6.794;2022-10-31T07:07:51;35.00;;;9.77;;
5569;SDS011;2808;51.240;6.794;2022-10-31T07:10:24;23.07;;;8.83;;
5569;SDS011;2808;51.240;6.794;2022-10-31T07:12:56;18.13;;;7.73;;
5569;SDS011;2808;51.240;6.794;2022-10-31T07:15:26;23.43;;;10.30;;
5569;SDS011;2808;51.240;6.794;2022-10-31T07:17:58;26.37;;;9.00;;
5569;SDS011;2808;51.240;6.794;2022-10-31T07:20:26;23.10;;;9.27;;
5569;SDS011;2808;51.240;6.794;2022-10-31T07:22:54;18.23;;;8.70;;
5569;SDS011;2808;51.240;6.794;2022-10-31T07:25:23;25.00;;;9.70;;
5569;SDS011;2808;51.240;6.794;2022-10-31T07:27:57;24.70;;;9.60;;
5569;SDS011;2808;51.240;6.794;2022-10-31T07:30:28;22.17;;;9.10;;
5569;SDS011;2808;51.240;6.794;2022-10-31T07:32:58;26.23;;;9.50;;
5569;SDS011;2808;51.240;6.794;2022-10-31T07:35:33;28.37;;;14.30;;
5569;SDS011;2808;51.240;6.794;2022-10-31T07:38:07;34.60;;;14.47;;
5569;SDS011;2808;51.240;6.794;2022-10-31T07:40:41;26.60;;;9.47;;
5569;SDS011;2808;51.240;6.794;2022-10-31T07:43:15;17.43;;;9.10;;
5569;SDS011;2808;51.240;6.794;2022-10-31T07:45:50;25.00;;;12.90;;
5569;SDS011;2808;51.240;6.794;2022-10-31T07:48:29;22.73;;;11.00;;
5569;SDS011;2808;51.240;6.794;2022-10-31T07:50:58;31.43;;;10.03;;
5569;SDS011;2808;51.240;6.794;2022-10-31T07:53:40;19.80;;;9.87;;
5569;SDS011;2808;51.240;6.794;2022-10-31T07:56:17;22.47;;;9.83;;
5569;SDS011;2808;51.240;6.794;2022-10-31T07:58:53;25.60;;;10.23;;
5569;SDS011;2808;51.240;6.794;2022-10-31T08:01:29;20.43;;;10.53;;
5569;SDS011;2808;51.240;6.794;2022-10-31T08:04:00;22.23;;;10.80;;
5569;SDS011;2808;51.240;6.794;2022-10-31T08:06:28;22.73;;;10.23;;
5569;SDS011;2808;51.240;6.794;2022-10-31T08:08:56;20.33;;;10.27;;
5569;SDS011;2808;51.240;6.794;2022-10-31T08:11:42;25.60;;;9.87;;
5569;SDS011;2808;51.240;6.794;2022-10-31T08:14:10;23.30;;;10.00;;
5569;SDS011;2808;51.240;6.794;2022-10-31T08:16:38;28.10;;;9.60;;
5569;SDS011;2808;51.240;6.794;2022-10-31T08:19:08;20.13;;;9.90;;
5569;SDS011;2808;51.240;6.794;2022-10-31T08:21:38;23.40;;;11.20;;
5569;SDS011;2808;51.240;6.794;2022-10-31T08:24:08;25.07;;;11.63;;
5569;SDS011;2808;51.240;6.794;2022-10-31T08:26:40;23.00;;;9.70;;
5569;SDS011;2808;51.240;6.794;2022-10-31T08:29:07;19.63;;;9.73;;
5569;SDS011;2808;51.240;6.794;2022-10-31T08:31:35;23.97;;;10.40;;
5569;SDS011;2808;51.240;6.794;2022-10-31T08:34:02;31.70;;;10.47;;
5569;SDS011;2808;51.240;6.794;2022-10-31T08:36:30;26.93;;;10.37;;
5569;SDS011;2808;51.240;6.794;2022-10-31T08:38:57;22.27;;;10.10;;
5569;SDS011;2808;51.240;6.794;2022-10-31T08:41:25;23.53;;;10.30;;
5569;SDS011;2808;51.240;6.794;2022-10-31T08:43:54;24.23;;;8.80;;
5569;SDS011;2808;51.240;6.794;2022-10-31T08:46:21;24.93;;;10.10;;
5569;SDS011;2808;51.240;6.794;2022-10-31T08:48:48;18.47;;;9.23;;
5569;SDS011;2808;51.240;6.794;2022-10-31T08:51:16;27.87;;;10.53;;
5569;SDS011;2808;51.240;6.794;2022-10-31T08:53:44;24.23;;;9.73;;
5569;SDS011;2808;51.240;6.794;2022-10-31T08:56:11;20.73;;;9.00;;
5569;SDS011;2808;51.240;6.794;2022-10-31T08:58:38;21.00;;;10.30;;
5569;SDS011;2808;51.240;6.794;2022-10-31T09:01:07;25.93;;;9.67;;
5569;SDS011;2808;51.240;6.794;2022-10-31T09:03:37;18.00;;;9.50;;
5569;SDS011;2808;51.240;6.794;2022-10-31T09:06:07;24.20;;;8.83;;
5569;SDS011;2808;51.240;6.794;2022-10-31T09:08:35;20.73;;;9.53;;
5569;SDS011;2808;51.240;6.794;2022-10-31T09:11:05;25.37;;;10.27;;
5569;SDS011;2808;51.240;6.794;2022-10-31T09:13:33;18.60;;;9.87;;
5569;SDS011;2808;51.240;6.794;2022-10-31T09:16:00;21.60;;;9.70;;
5569;SDS011;2808;51.240;6.794;2022-10-31T09:18:32;28.77;;;10.10;;
5569;SDS011;2808;51.240;6.794;2022-10-31T09:20:59;19.80;;;10.00;;
5569;SDS011;2808;51.240;6.794;2022-10-31T09:23:27;28.07;;;10.73;;
5569;SDS011;2808;51.240;6.794;2022-10-31T09:25:55;21.70;;;9.97;;
5569;SDS011;2808;51.240;6.794;2022-10-31T09:28:27;30.17;;;10.47;;
5569;SDS011;2808;51.240;6.794;2022-10-31T09:30:54;24.33;;;10.20;;
5569;SDS011;2808;51.240;6.794;2022-10-31T09:33:43;40.80;;;11.20;;
5569;SDS011;2808;51.240;6.794;2022-10-31T09:36:14;21.97;;;9.73;;
5569;SDS011;2808;51.240;6.794;2022-10-31T09:38:42;26.50;;;9.60;;
5569;SDS011;2808;51.240;6.794;2022-10-31T09:41:15;26.20;;;11.07;;
5569;SDS011;2808;51.240;6.794;2022-10-31T09:43:50;25.37;;;10.90;;
5569;SDS011;2808;51.240;6.794;2022-10-31T09:46:25;26.60;;;9.67;;
5569;SDS011;2808;51.240;6.794;2022-10-31T09:49:07;21.03;;;9.40;;
5569;SDS011;2808;51.240;6.794;2022-10-31T09:51:57;27.17;;;11.07;;
5569;SDS011;2808;51.240;6.794;2022-10-31T09:54:30;24.27;;;10.27;;
5569;SDS011;2808;51.240;6.794;2022-10-31T09:57:07;21.47;;;9.60;;
5569;SDS011;2808;51.240;6.794;2022-10-31T09:59:44;28.03;;;9.53;;
5569;SDS011;2808;51.240;6.794;2022-10-31T10:02:16;32.23;;;10.97;;
5569;SDS011;2808;51.240;6.794;2022-10-31T10:04:53;18.70;;;8.93;;
5569;SDS011;2808;51.240;6.794;2022-10-31T10:07:29;25.50;;;11.07;;
5569;SDS011;2808;51.240;6.794;2022-10-31T10:10:12;19.77;;;10.50;;
5569;SDS011;2808;51.240;6.794;2022-10-31T10:13:04;21.13;;;10.07;;
5569;SDS011;2808;51.240;6.794;2022-10-31T10:15:57;26.73;;;11.77;;
5569;SDS011;2808;51.240;6.794;2022-10-31T10:18:38;30.77;;;11.80;;
5569;SDS011;2808;51.240;6.794;2022-10-31T10:21:22;29.83;;;10.87;;
5569;SDS011;2808;51.240;6.794;2022-10-31T10:24:01;25.53;;;11.33;;
5569;SDS011;2808;51.240;6.794;2022-10-31T10:26:50;22.43;;;9.93;;
5569;SDS011;2808;51.240;6.794;2022-10-31T10:29:29;27.20;;;10.63;;
5569;SDS011;2808;51.240;6.794;2022-10-31T10:32:03;25.00;;;10.80;;
5569;SDS011;2808;51.240;6.794;2022-10-31T10:34:37;23.47;;;10.47;;
5569;SDS011;2808;51.240;6.794;2022-10-31T10:37:14;23.83;;;9.57;;
5569;SDS011;2808;51.240;6.794;2022-10-31T10:39:49;22.50;;;9.43;;
5569;SDS011;2808;51.240;6.794;2022-10-31T10:42:28;24.60;;;9.57;;
5569;SDS011;2808;51.240;6.794;2022-10-31T10:45:14;20.80;;;9.00;;
5569;SDS011;2808;51.240;6.794;2022-10-31T10:48:04;23.67;;;9.27;;
5569;SDS011;2808;51.240;6.794;2022-10-31T10:50:38;24.00;;;8.33;;
5569;SDS011;2808;51.240;6.794;2022-10-31T10:53:13;24.27;;;9.40;;
5569;SDS011;2808;51.240;6.794;2022-10-31T10:56:02;22.20;;;9.50;;
5569;SDS011;2808;51.240;6.794;2022-10-31T10:58:38;24.60;;;9.30;;
5569;SDS011;2808;51.240;6.794;2022-10-31T11:01:09;32.63;;;10.33;;
5569;SDS011;2808;51.240;6.794;2022-10-31T11:03:38;23.30;;;9.90;;
5569;SDS011;2808;51.240;6.794;2022-10-31T11:06:15;22.73;;;8.80;;
5569;SDS011;2808;51.240;6.794;2022-10-31T11:08:52;25.13;;;10.10;;
5569;SDS011;2808;51.240;6.794;2022-10-31T11:11:23;24.07;;;8.40;;
5569;SDS011;2808;51.240;6.794;2022-10-31T11:13:55;29.57;;;10.80;;
5569;SDS011;2808;51.240;6.794;2022-10-31T11:16:29;26.67;;;9.73;;
5569;SDS011;2808;51.240;6.794;2022-10-31T11:19:06;23.47;;;9.20;;
5569;SDS011;2808;51.240;6.794;2022-10-31T11:21:43;21.63;;;7.70;;
5569;SDS011;2808;51.240;6.794;2022-10-31T11:24:15;23.70;;;8.03;;
5569;SDS011;2808;51.240;6.794;2022-10-31T11:26:49;18.80;;;8.27;;
5569;SDS011;2808;51.240;6.794;2022-10-31T11:29:20;25.33;;;8.33;;
5569;SDS011;2808;51.240;6.794;2022-10-31T11:31:52;18.20;;;7.63;;
5569;SDS011;2808;51.240;6.794;2022-10-31T11:34:33;23.90;;;9.27;;
5569;SDS011;2808;51.240;6.794;2022-10-31T11:37:10;22.87;;;8.13;;
5569;SDS011;2808;51.240;6.794;2022-10-31T11:39:44;25.07;;;8.80;;
5569;SDS011;2808;51.240;6.794;2022-10-31T11:42:18;31.03;;;8.40;;
5569;SDS011;2808;51.240;6.794;2022-10-31T11:44:48;18.13;;;8.30;;
5569;SDS011;2808;51.240;6.794;2022-10-31T11:47:22;17.37;;;8.57;;
5569;SDS011;2808;51.240;6.794;2022-10-31T11:50:02;26.50;;;9.30;;
5569;SDS011;2808;51.240;6.794;2022-10-31T11:52:42;16.70;;;7.33;;
5569;SDS011;2808;51.240;6.794;2022-10-31T11:55:29;18.70;;;7.20;;
5569;SDS011;2808;51.240;6.794;2022-10-31T11:58:18;15.33;;;7.70;;
5569;SDS011;2808;51.240;6.794;2022-10-31T12:00:49;17.03;;;8.07;;
5569;SDS011;2808;51.240;6.794;2022-10-31T12:06:20;19.73;;;7.20;;
5569;SDS011;2808;51.240;6.794;2022-10-31T12:08:54;16.70;;;7.20;;
5569;SDS011;2808;51.240;6.794;2022-10-31T12:11:38;21.00;;;7.00;;
5569;SDS011;2808;51.240;6.794;2022-10-31T12:14:26;24.73;;;7.20;;
5569;SDS011;2808;51.240;6.794;2022-10-31T12:17:00;21.60;;;6.50;;
5569;SDS011;2808;51.240;6.794;2022-10-31T12:19:36;12.63;;;6.10;;
5569;SDS011;2808;51.240;6.794;2022-10-31T12:22:15;31.33;;;6.77;;
5569;SDS011;2808;51.240;6.794;2022-10-31T12:24:54;18.17;;;6.50;;
5569;SDS011;2808;51.240;6.794;2022-10-31T12:27:40;20.47;;;6.40;;
5569;SDS011;2808;51.240;6.794;2022-10-31T12:30:21;10.10;;;5.07;;
5569;SDS011;2808;51.240;6.794;2022-10-31T12:33:16;16.60;;;4.47;;
5569;SDS011;2808;51.240;6.794;2022-10-31T12:36:04;17.80;;;5.47;;
5569;SDS011;2808;51.240;6.794;2022-10-31T12:38:49;15.67;;;4.43;;
5569;SDS011;2808;51.240;6.794;2022-10-31T12:41:45;16.57;;;5.40;;
5569;SDS011;2808;51.240;6.794;2022-10-31T12:44:27;12.67;;;4.57;;
5569;SDS011;2808;51.240;6.794;2022-10-31T12:47:23;12.70;;;4.70;;
5569;SDS011;2808;51.240;6.794;2022-10-31T12:50:16;13.97;;;4.53;;
5569;SDS011;2808;51.240;6.794;2022-10-31T12:53:27;14.30;;;4.40;;
5569;SDS011;2808;51.240;6.794;2022-10-31T12:56:07;15.00;;;4.10;;
5569;SDS011;2808;51.240;6.794;2022-10-31T12:58:45;14.50;;;4.93;;
5569;SDS011;2808;51.240;6.794;2022-10-31T13:01:30;18.27;;;4.10;;
5569;SDS011;2808;51.240;6.794;2022-10-31T13:04:04;12.70;;;4.77;;
5569;SDS011;2808;51.240;6.794;2022-10-31T13:06:38;13.30;;;4.00;;
5569;SDS011;2808;51.240;6.794;2022-10-31T13:09:10;15.23;;;4.17;;
5569;SDS011;2808;51.240;6.794;2022-10-31T13:11:42;15.33;;;4.60;;
5569;SDS011;2808;51.240;6.794;2022-10-31T13:14:15;9.23;;;3.60;;
5569;SDS011;2808;51.240;6.794;2022-10-31T13:16:52;16.83;;;5.37;;
5569;SDS011;2808;51.240;6.794;2022-10-31T13:19:22;12.90;;;4.40;;
5569;SDS011;2808;51.240;6.794;2022-10-31T13:21:54;12.33;;;4.50;;
5569;SDS011;2808;51.240;6.794;2022-10-31T13:24:27;12.30;;;3.80;;
5569;SDS011;2808;51.240;6.794;2022-10-31T13:27:01;16.80;;;5.20;;
5569;SDS011;2808;51.240;6.794;2022-10-31T13:29:38;14.57;;;4.57;;
5569;SDS011;2808;51.240;6.794;2022-10-31T13:32:12;21.13;;;4.70;;
5569;SDS011;2808;51.240;6.794;2022-10-31T13:34:40;13.23;;;4.80;;
5569;SDS011;2808;51.240;6.794;2022-10-31T13:37:14;13.83;;;4.37;;
5569;SDS011;2808;51.240;6.794;2022-10-31T13:39:50;16.50;;;4.73;;
5569;SDS011;2808;51.240;6.794;2022-10-31T13:42:57;18.53;;;4.23;;
5569;SDS011;2808;51.240;6.794;2022-10-31T13:45:30;13.93;;;4.13;;
5569;SDS011;2808;51.240;6.794;2022-10-31T13:47:59;17.17;;;4.60;;
5569;SDS011;2808;51.240;6.794;2022-10-31T13:50:54;10.00;;;4.20;;
5569;SDS011;2808;51.240;6.794;2022-10-31T13:53:35;26.53;;;4.90;;
5569;SDS011;2808;51.240;6.794;2022-10-31T13:56:14;23.57;;;4.20;;
5569;SDS011;2808;51.240;6.794;2022-10-31T13:58:55;13.93;;;4.00;;
5569;SDS011;2808;51.240;6.794;2022-10-31T14:01:26;12.23;;;3.80;;
5569;SDS011;2808;51.240;6.794;2022-10-31T14:04:04;14.77;;;4.10;;
5569;SDS011;2808;51.240;6.794;2022-10-31T14:06:39;14.50;;;4.07;;
5569;SDS011;2808;51.240;6.794;2022-10-31T14:09:21;16.93;;;5.07;;
5569;SDS011;2808;51.240;6.794;2022-10-31T14:11:53;16.17;;;4.40;;
5569;SDS011;2808;51.240;6.794;2022-10-31T14:14:28;14.00;;;4.17;;
5569;SDS011;2808;51.240;6.794;2022-10-31T14:16:59;18.63;;;4.70;;
5569;SDS011;2808;51.240;6.794;2022-10-31T14:19:29;15.83;;;3.93;;
5569;SDS011;2808;51.240;6.794;2022-10-31T14:21:56;10.33;;;3.20;;
5569;SDS011;2808;51.240;6.794;2022-10-31T14:24:31;19.10;;;4.10;;
5569;SDS011;2808;51.240;6.794;2022-10-31T14:27:01;13.70;;;4.20;;
5569;SDS011;2808;51.240;6.794;2022-10-31T14:29:50;15.63;;;4.20;;
5569;SDS011;2808;51.240;6.794;2022-10-31T14:32:22;12.03;;;3.87;;
5569;SDS011;2808;51.240;6.794;2022-10-31T14:34:52;9.80;;;4.07;;
5569;SDS011;2808;51.240;6.794;2022-10-31T14:37:35;13.40;;;4.40;;
5569;SDS011;2808;51.240;6.794;2022-10-31T14:40:25;16.13;;;3.50;;
5569;SDS011;2808;51.240;6.794;2022-10-31T14:46:01;11.37;;;3.90;;
5569;SDS011;2808;51.240;6.794;2022-10-31T14:48:40;12.87;;;4.00;;
5569;SDS011;2808;51.240;6.794;2022-10-31T14:51:30;11.53;;;3.90;;
5569;SDS011;2808;51.240;6.794;2022-10-31T14:54:02;12.70;;;3.93;;
5569;SDS011;2808;51.240;6.794;2022-10-31T14:56:34;16.27;;;4.60;;
5569;SDS011;2808;51.240;6.794;2022-10-31T14:59:08;10.90;;;3.90;;
5569;SDS011;2808;51.240;6.794;2022-10-31T15:04:57;13.03;;;3.73;;
5569;SDS011;2808;51.240;6.794;2022-10-31T15:07:26;14.93;;;3.83;;
5569;SDS011;2808;51.240;6.794;2022-10-31T15:09:56;15.17;;;3.80;;
5569;SDS011;2808;51.240;6.794;2022-10-31T15:12:43;18.33;;;3.30;;
5569;SDS011;2808;51.240;6.794;2022-10-31T15:15:32;14.67;;;3.93;;
5569;SDS011;2808;51.240;6.794;2022-10-31T15:18:38;9.40;;;3.43;;
5569;SDS011;2808;51.240;6.794;2022-10-31T15:32:17;12.70;;;3.87;;
5569;SDS011;2808;51.240;6.794;2022-10-31T15:34:48;18.70;;;4.50;;
5569;SDS011;2808;51.240;6.794;2022-10-31T15:50:54;9.90;;;3.70;;
5569;SDS011;2808;51.240;6.794;2022-10-31T15:53:23;15.53;;;4.17;;
5569;SDS011;2808;51.240;6.794;2022-10-31T15:55:53;17.80;;;5.00;;
5569;SDS011;2808;51.240;6.794;2022-10-31T15:58:22;17.60;;;3.47;;
5569;SDS011;2808;51.240;6.794;2022-10-31T16:00:58;13.20;;;4.33;;
5569;SDS011;2808;51.240;6.794;2022-10-31T16:03:27;13.97;;;3.93;;
5569;SDS011;2808;51.240;6.794;2022-10-31T16:05:59;11.10;;;3.50;;
5569;SDS011;2808;51.240;6.794;2022-10-31T16:08:32;14.17;;;3.80;;
5569;SDS011;2808;51.240;6.794;2022-10-31T16:14:14;12.07;;;3.20;;
5569;SDS011;2808;51.240;6.794;2022-10-31T16:16:46;13.90;;;3.53;;